createdAt,value
2018-06-17T00:01:35.852Z,101040.19
2018-06-17T00:04:05.389Z,101041.97
2018-06-17T00:06:34.959Z,101045.33
2018-06-17T00:09:06.425Z,101050.37
2018-06-17T00:11:35.981Z,101053.89
2018-06-17T00:14:05.509Z,101050.61
2018-06-17T00:16:35.392Z,101040.25
2018-06-17T00:19:04.900Z,101038.95
2018-06-17T00:21:34.482Z,101057.98
2018-06-17T00:24:04.289Z,101055.44
2018-06-17T00:26:33.716Z,101054.86
2018-06-17T00:29:03.202Z,101056.51
2018-06-17T00:31:32.948Z,101065.55
2018-06-17T00:34:02.510Z,101056.80
2018-06-17T00:36:32.157Z,101054.59
2018-06-17T00:39:02.282Z,101059.63
2018-06-17T00:41:31.744Z,101060.68
2018-06-17T00:44:01.373Z,101062.53
2018-06-17T00:46:31.281Z,101056.27
2018-06-17T00:49:00.683Z,101060.44
2018-06-17T00:51:30.393Z,101054.75
2018-06-17T00:53:59.863Z,101055.04
2018-06-17T00:56:29.253Z,101061.92
2018-06-17T00:58:58.698Z,101064.91
2018-06-17T01:01:28.420Z,101061.71
2018-06-17T01:03:57.813Z,101058.73
2018-06-17T01:06:27.172Z,101058.63
2018-06-17T01:08:56.695Z,101065.06
2018-06-17T01:11:26.078Z,101057.66
2018-06-17T01:13:55.415Z,101067.11
2018-06-17T01:16:24.836Z,101058.52
2018-06-17T01:18:54.401Z,101063.91
2018-06-17T01:21:23.720Z,101055.77
2018-06-17T01:23:53.169Z,101051.79
2018-06-17T01:26:22.452Z,101044.60
2018-06-17T01:28:51.667Z,101049.89
2018-06-17T01:31:20.997Z,101045.81
2018-06-17T01:33:50.357Z,101044.61
2018-06-17T01:36:19.741Z,101030.98
2018-06-17T01:38:49.145Z,101026.69
2018-06-17T01:41:18.546Z,101020.40
2018-06-17T01:43:47.838Z,101019.52
2018-06-17T01:46:18.505Z,101023.61
2018-06-17T01:48:47.942Z,101015.16
2018-06-17T01:51:17.363Z,101018.20
2018-06-17T01:53:46.651Z,101021.23
2018-06-17T01:56:15.993Z,101025.17
2018-06-17T01:58:45.294Z,101011.03
2018-06-17T02:01:14.658Z,101006.32
2018-06-17T02:03:49.148Z,101009.86
2018-06-17T02:06:23.761Z,101013.72
2018-06-17T02:08:58.704Z,101003.13
2018-06-17T02:11:33.379Z,101010.96
2018-06-17T02:14:08.196Z,101012.52
2018-06-17T02:16:38.313Z,101011.70
2018-06-17T02:19:07.723Z,101017.52
2018-06-17T02:21:37.222Z,101024.64
2018-06-17T02:24:07.373Z,101021.12
2018-06-17T02:26:36.987Z,101025.47
2018-06-17T02:29:06.378Z,101031.50
2018-06-17T02:31:35.990Z,101034.17
2018-06-17T02:34:05.675Z,101040.63
2018-06-17T02:36:35.214Z,101033.76
2018-06-17T02:39:06.548Z,101026.44
2018-06-17T02:41:36.449Z,101024.09
2018-06-17T02:44:06.073Z,101025.59
2018-06-17T02:46:40.850Z,101025.89
2018-06-17T02:49:16.223Z,101025.89
2018-06-17T02:51:50.873Z,101038.92
2018-06-17T02:54:25.526Z,101032.28
2018-06-17T02:56:55.101Z,101027.59
2018-06-17T02:59:24.479Z,101021.75
2018-06-17T03:01:53.780Z,101012.40
2018-06-17T03:04:23.591Z,101018.50
2018-06-17T03:06:52.921Z,101021.69
2018-06-17T03:09:22.153Z,101021.69
2018-06-17T03:11:51.391Z,101019.14
2018-06-17T03:14:20.627Z,101030.13
2018-06-17T03:16:49.878Z,101023.33
2018-06-17T03:19:19.147Z,101017.59
2018-06-17T03:21:48.619Z,101026.54
2018-06-17T03:24:21.398Z,101016.37
2018-06-17T03:26:56.034Z,101016.58
2018-06-17T03:30:28.898Z,101007.86
2018-06-17T03:33:03.340Z,101011.70
2018-06-17T03:35:38.271Z,101016.51
2018-06-17T03:38:07.679Z,101022.20
2018-06-17T03:40:37.248Z,101018.59
2018-06-17T03:43:06.767Z,101020.80
2018-06-17T03:45:36.374Z,101016.01
2018-06-17T03:48:05.910Z,101012.41
2018-06-17T03:50:35.809Z,101007.72
2018-06-17T03:53:05.965Z,101019.01
2018-06-17T03:55:36.639Z,101018.95
2018-06-17T03:58:06.244Z,101017.66
2018-06-17T04:00:35.991Z,101011.57
2018-06-17T04:03:05.550Z,101015.33
2018-06-17T04:05:35.224Z,101014.13
2018-06-17T04:08:04.941Z,101008.17
2018-06-17T04:10:34.461Z,101007.44
2018-06-17T04:13:04.097Z,101008.58
2018-06-17T04:15:33.618Z,101013.41
2018-06-17T04:18:03.225Z,101011.55
2018-06-17T04:20:32.824Z,101012.19
2018-06-17T04:23:02.437Z,101015.89
2018-06-17T04:25:32.125Z,101023.70
2018-06-17T04:28:01.644Z,101021.35
2018-06-17T04:30:31.393Z,101022.27
2018-06-17T04:33:01.201Z,101024.77
2018-06-17T04:35:30.877Z,101022.02
2018-06-17T04:38:00.342Z,101022.78
2018-06-17T04:40:30.196Z,101014.19
2018-06-17T04:42:59.666Z,101023.63
2018-06-17T04:45:28.986Z,101018.09
2018-06-17T04:47:58.882Z,101020.73
2018-06-17T04:50:28.221Z,101025.07
2018-06-17T04:52:57.578Z,101016.03
2018-06-17T04:55:26.889Z,101020.78
2018-06-17T04:57:56.218Z,101018.59
2018-06-17T05:00:25.521Z,101028.88
2018-06-17T05:02:55.115Z,101023.47
2018-06-17T05:05:24.405Z,101023.69
2018-06-17T05:07:53.733Z,101021.72
2018-06-17T05:10:23.200Z,101018.94
2018-06-17T05:12:52.524Z,101019.87
2018-06-17T05:15:21.783Z,101019.08
2018-06-17T05:17:51.051Z,101026.77
2018-06-17T05:20:20.380Z,101020.37
2018-06-17T05:22:49.783Z,101022.48
2018-06-17T05:25:19.346Z,101017.56
2018-06-17T05:27:48.908Z,101023.05
2018-06-17T05:30:18.463Z,101021.31
2018-06-17T05:32:47.914Z,101014.69
2018-06-17T05:35:17.375Z,101019.09
2018-06-17T05:37:46.813Z,101016.94
2018-06-17T05:40:16.574Z,101017.86
2018-06-17T05:42:46.097Z,101018.66
2018-06-17T05:45:15.484Z,101020.59
2018-06-17T05:47:45.154Z,101010.18
2018-06-17T05:50:14.734Z,101014.81
2018-06-17T05:52:44.404Z,101012.46
2018-06-17T05:55:14.101Z,101013.70
2018-06-17T05:57:43.759Z,101012.89
2018-06-17T06:00:13.376Z,101009.03
2018-06-17T06:02:43.561Z,101008.45
2018-06-17T06:05:13.248Z,101017.64
2018-06-17T06:07:42.751Z,101018.34
2018-06-17T06:10:12.442Z,101017.86
2018-06-17T06:12:42.067Z,101019.00
2018-06-17T06:15:11.711Z,101020.80
2018-06-17T06:17:41.589Z,101021.28
2018-06-17T06:20:11.427Z,101017.94
2018-06-17T06:22:40.802Z,101022.06
2018-06-17T06:25:10.666Z,101021.50
2018-06-17T06:27:40.206Z,101023.00
2018-06-17T06:30:09.839Z,101025.36
2018-06-17T06:32:39.650Z,101023.95
2018-06-17T06:35:09.477Z,101019.48
2018-06-17T06:37:39.162Z,101023.99
2018-06-17T06:40:08.937Z,101032.52
2018-06-17T06:42:38.481Z,101027.30
2018-06-17T06:45:07.970Z,101027.63
2018-06-17T06:47:37.902Z,101026.28
2018-06-17T06:50:08.046Z,101025.88
2018-06-17T06:52:37.584Z,101022.91
2018-06-17T06:55:07.675Z,101023.86
2018-06-17T06:57:37.959Z,101022.05
2018-06-17T07:00:07.819Z,101032.32
2018-06-17T07:02:48.266Z,101033.84
2018-06-17T07:05:28.900Z,101030.50
2018-06-17T07:08:10.028Z,101036.02
2018-06-17T07:10:39.852Z,101034.69
2018-06-17T07:13:10.014Z,101038.64
2018-06-17T07:15:50.555Z,101039.89
2018-06-17T07:18:29.110Z,101043.73
2018-06-17T07:20:58.561Z,101045.48
2018-06-17T07:23:27.836Z,101038.08
2018-06-17T07:26:38.472Z,101048.33
2018-06-17T07:29:19.324Z,101049.64
2018-06-17T07:31:49.112Z,101050.06
2018-06-17T07:34:18.723Z,101051.83
2018-06-17T07:36:48.069Z,101041.59
2018-06-17T07:40:31.179Z,101039.89
2018-06-17T07:43:00.986Z,101044.46
2018-06-17T07:45:30.505Z,101050.66
2018-06-17T07:47:59.988Z,101047.45
2018-06-17T07:50:40.556Z,101042.89
2018-06-17T07:53:17.038Z,101044.59
2018-06-17T07:55:47.002Z,101048.57
2018-06-17T07:58:16.749Z,101044.72
2018-06-17T08:00:46.222Z,101047.59
2018-06-17T08:03:15.568Z,101046.42
2018-06-17T08:05:44.913Z,101042.64
2018-06-17T08:08:14.648Z,101041.38
2018-06-17T08:10:44.141Z,101034.63
2018-06-17T08:13:13.639Z,101039.01
2018-06-17T08:15:43.251Z,101030.84
2018-06-17T08:18:12.712Z,101038.95
2018-06-17T08:20:42.287Z,101034.16
2018-06-17T08:23:12.953Z,101038.95
2018-06-17T08:25:42.456Z,101043.31
2018-06-17T08:28:12.270Z,101037.22
2018-06-17T08:30:42.103Z,101037.20
2018-06-17T08:33:11.784Z,101040.26
2018-06-17T08:35:41.138Z,101032.52
2018-06-17T08:38:10.893Z,101033.11
2018-06-17T08:40:40.701Z,101031.67
2018-06-17T08:43:10.615Z,101025.19
2018-06-17T08:45:40.327Z,101036.13
2018-06-17T08:48:09.941Z,101037.65
2018-06-17T08:50:39.389Z,101032.61
2018-06-17T08:53:09.148Z,101029.88
2018-06-17T08:55:38.821Z,101031.24
2018-06-17T08:58:08.749Z,101036.66
2018-06-17T09:00:38.306Z,101042.27
2018-06-17T09:03:08.939Z,101045.84
2018-06-17T09:05:38.469Z,101044.13
2018-06-17T09:08:09.047Z,101047.83
2018-06-17T09:10:39.601Z,101045.05
2018-06-17T09:13:09.033Z,101048.73
2018-06-17T09:15:38.597Z,101053.92
2018-06-17T09:18:07.954Z,101045.35
2018-06-17T09:20:37.643Z,101051.28
2018-06-17T09:23:07.269Z,101046.13
2018-06-17T09:25:36.867Z,101049.93
2018-06-17T09:28:06.561Z,101048.58
2018-06-17T09:30:36.629Z,101043.66
2018-06-17T09:33:06.356Z,101053.64
2018-06-17T09:35:35.881Z,101056.30
2018-06-17T09:38:05.527Z,101058.98
2018-06-17T09:40:35.132Z,101062.01
2018-06-17T09:43:05.024Z,101059.84
2018-06-17T09:45:35.639Z,101070.61
2018-06-17T09:48:05.705Z,101056.10
2018-06-17T09:50:36.439Z,101059.42
2018-06-17T09:53:06.236Z,101058.89
2018-06-17T09:55:36.188Z,101061.52
2018-06-17T09:58:06.664Z,101064.36
2018-06-17T10:00:36.342Z,101064.47
2018-06-17T10:03:06.044Z,101062.44
2018-06-17T10:05:36.103Z,101059.44
2018-06-17T10:08:06.250Z,101060.16
2018-06-17T10:10:54.807Z,101062.30
2018-06-17T10:13:26.215Z,101063.16
2018-06-17T10:15:55.600Z,101071.67
2018-06-17T10:18:25.452Z,101070.81
2018-06-17T10:20:54.813Z,101060.44
2018-06-17T10:23:24.298Z,101063.11
2018-06-17T10:25:53.838Z,101058.27
2018-06-17T10:28:24.606Z,101061.97
2018-06-17T10:30:55.316Z,101071.36
2018-06-17T10:33:24.943Z,101063.41
2018-06-17T10:35:54.798Z,101069.48
2018-06-17T10:38:24.318Z,101077.30
2018-06-17T10:40:53.664Z,101074.24
2018-06-17T10:43:27.588Z,101071.66
2018-06-17T10:45:57.216Z,101087.56
2018-06-17T10:48:26.827Z,101075.70
2018-06-17T10:50:56.299Z,101074.03
2018-06-17T10:53:25.658Z,101079.36
2018-06-17T10:55:55.299Z,101084.92
2018-06-17T10:58:24.565Z,101082.92
2018-06-17T11:00:54.011Z,101091.94
2018-06-17T11:03:23.406Z,101090.86
2018-06-17T11:05:53.594Z,101090.96
2018-06-17T11:08:23.013Z,101090.94
2018-06-17T11:10:52.453Z,101095.35
2018-06-17T11:13:21.961Z,101096.20
2018-06-17T11:15:51.248Z,101098.84
2018-06-17T11:18:20.812Z,101102.06
2018-06-17T11:20:50.389Z,101101.52
2018-06-17T11:23:20.029Z,101102.02
2018-06-17T11:25:49.878Z,101104.76
2018-06-17T11:28:19.595Z,101097.17
2018-06-17T11:30:48.883Z,101103.30
2018-06-17T11:33:18.263Z,101095.80
2018-06-17T11:35:48.225Z,101103.30
2018-06-17T11:38:17.750Z,101109.06
2018-06-17T11:40:47.048Z,101101.07
2018-06-17T11:43:16.901Z,101097.68
2018-06-17T11:45:46.315Z,101099.05
2018-06-17T11:48:15.668Z,101112.47
2018-06-17T11:50:45.082Z,101116.78
2018-06-17T11:53:14.714Z,101117.58
2018-06-17T11:55:44.350Z,101119.53
2018-06-17T11:58:14.238Z,101131.35
2018-06-17T12:00:43.749Z,101134.83
2018-06-17T12:03:14.108Z,101123.59
2018-06-17T12:05:43.513Z,101131.77
2018-06-17T12:08:12.875Z,101136.89
2018-06-17T12:10:43.070Z,101138.06
2018-06-17T12:13:12.600Z,101137.95
2018-06-17T12:15:42.929Z,101129.72
2018-06-17T12:18:12.593Z,101126.84
2018-06-17T12:20:41.988Z,101131.92
2018-06-17T12:23:11.334Z,101128.27
2018-06-17T12:25:41.109Z,101136.91
2018-06-17T12:28:10.458Z,101135.56
2018-06-17T12:30:40.377Z,101145.16
2018-06-17T12:33:10.953Z,101140.20
2018-06-17T12:35:40.301Z,101141.36
2018-06-17T12:38:09.806Z,101148.53
2018-06-17T12:40:39.140Z,101161.91
2018-06-17T12:43:08.590Z,101163.63
2018-06-17T12:45:38.221Z,101172.70
2018-06-17T12:48:07.721Z,101186.83
2018-06-17T12:50:37.417Z,101198.23
2018-06-17T12:53:07.099Z,101202.70
2018-06-17T12:55:37.268Z,101209.80
2018-06-17T12:58:07.693Z,101215.36
2018-06-17T13:00:37.727Z,101214.73
2018-06-17T13:03:08.231Z,101216.81
2018-06-17T13:05:38.302Z,101214.59
2018-06-17T13:08:07.961Z,101218.07
2018-06-17T13:10:39.108Z,101217.81
2018-06-17T13:13:08.779Z,101214.98
2018-06-17T13:15:38.593Z,101214.30
2018-06-17T13:18:08.213Z,101202.94
2018-06-17T13:20:37.632Z,101217.56
2018-06-17T13:23:07.307Z,101222.50
2018-06-17T13:25:37.359Z,101223.11
2018-06-17T13:28:07.296Z,101221.15
2018-06-17T13:30:36.955Z,101224.06
2018-06-17T13:33:06.800Z,101222.66
2018-06-17T13:35:36.803Z,101217.94
2018-06-17T13:38:06.591Z,101218.79
2018-06-17T13:40:36.920Z,101217.58
2018-06-17T13:43:06.837Z,101215.09
2018-06-17T13:45:37.124Z,101208.24
2018-06-17T13:48:06.803Z,101211.05
2018-06-17T13:50:36.622Z,101227.39
2018-06-17T13:53:06.886Z,101227.56
2018-06-17T13:55:36.636Z,101225.14
2018-06-17T13:58:06.651Z,101231.33
2018-06-17T14:00:37.228Z,101223.36
2018-06-17T14:03:07.478Z,101218.67
2018-06-17T14:05:37.331Z,101223.80
2018-06-17T14:08:08.246Z,101232.38
2018-06-17T14:10:38.092Z,101235.72
2018-06-17T14:13:08.109Z,101230.53
2018-06-17T14:15:37.973Z,101233.16
2018-06-17T14:18:08.518Z,101238.47
2018-06-17T14:20:38.320Z,101234.23
2018-06-17T14:23:08.665Z,101239.28
2018-06-17T14:25:38.877Z,101236.53
2018-06-17T14:28:08.861Z,101237.02
2018-06-17T14:30:38.459Z,101236.47
2018-06-17T14:33:09.169Z,101255.30
2018-06-17T14:35:39.142Z,101245.38
2018-06-17T14:38:08.819Z,101253.22
2018-06-17T14:40:43.998Z,101254.12
2018-06-17T14:43:18.767Z,101253.98
2018-06-17T14:45:54.293Z,101254.34
2018-06-17T14:48:37.832Z,101268.09
2018-06-17T14:51:13.588Z,101261.58
2018-06-17T14:53:42.899Z,101265.41
2018-06-17T14:56:12.485Z,101265.41
2018-06-17T14:58:42.373Z,101264.01
2018-06-17T15:01:11.715Z,101268.27
2018-06-17T15:03:41.189Z,101267.38
2018-06-17T15:06:11.013Z,101268.23
2018-06-17T15:08:41.137Z,101268.84
2018-06-17T15:11:10.806Z,101263.20
2018-06-17T15:13:41.414Z,101267.31
2018-06-17T15:16:10.951Z,101271.70
2018-06-17T15:18:40.732Z,101267.27
2018-06-17T15:21:10.475Z,101265.67
2018-06-17T15:23:40.078Z,101264.48
2018-06-17T15:26:09.716Z,101271.15
2018-06-17T15:28:39.529Z,101271.27
2018-06-17T15:31:14.192Z,101276.87
2018-06-17T15:33:48.949Z,101278.45
2018-06-17T15:36:23.582Z,101281.64
2018-06-17T15:38:56.492Z,101282.70
2018-06-17T15:41:29.510Z,101282.67
2018-06-17T15:43:59.595Z,101274.81
2018-06-17T15:46:28.976Z,101285.77
2018-06-17T15:48:58.493Z,101291.60
2018-06-17T15:51:28.064Z,101286.84
2018-06-17T15:53:57.411Z,101277.34
2018-06-17T15:56:26.783Z,101281.44
2018-06-17T15:58:56.400Z,101274.63
2018-06-17T16:01:25.701Z,101279.21
2018-06-17T16:03:55.075Z,101277.16
2018-06-17T16:06:24.802Z,101282.09
2018-06-17T16:08:54.248Z,101282.89
2018-06-17T16:11:23.534Z,101281.87
2018-06-17T16:13:58.321Z,101282.85
2018-06-17T16:16:33.044Z,101293.41
2018-06-17T16:19:07.606Z,101291.78
2018-06-17T16:21:37.136Z,101295.62
2018-06-17T16:24:06.954Z,101297.13
2018-06-17T16:26:36.673Z,101295.52
2018-06-17T16:29:06.564Z,101312.38
2018-06-17T16:31:36.235Z,101303.55
2018-06-17T16:34:05.914Z,101312.66
2018-06-17T16:36:35.527Z,101311.53
2018-06-17T16:39:08.308Z,101308.05
2018-06-17T16:41:37.885Z,101310.56
2018-06-17T16:44:07.647Z,101308.02
2018-06-17T16:46:37.078Z,101302.97
2018-06-17T16:49:06.868Z,101310.39
2018-06-17T16:51:41.811Z,101311.91
2018-06-17T16:54:16.682Z,101319.81
2018-06-17T16:56:51.279Z,101323.33
2018-06-17T16:59:56.090Z,101322.76
2018-06-17T17:02:25.504Z,101327.83
2018-06-17T17:04:54.854Z,101325.39
2018-06-17T17:07:24.185Z,101331.28
2018-06-17T17:09:53.643Z,101329.23
2018-06-17T17:12:22.869Z,101333.80
2018-06-17T17:14:52.167Z,101331.73
2018-06-17T17:17:21.508Z,101336.08
2018-06-17T17:19:50.999Z,101338.69
2018-06-17T17:22:20.309Z,101340.39
2018-06-17T17:24:49.873Z,101343.50
2018-06-17T17:27:19.235Z,101354.77
2018-06-17T17:29:48.644Z,101345.50
2018-06-17T17:32:23.739Z,101347.52
2018-06-17T17:34:58.367Z,101346.89
2018-06-17T17:37:32.904Z,101351.34
2018-06-17T17:40:08.035Z,101342.36
2018-06-17T17:42:37.970Z,101345.81
2018-06-17T17:45:12.800Z,101347.64
2018-06-17T17:47:43.258Z,101346.95
2018-06-17T17:50:12.736Z,101352.56
2018-06-17T17:52:42.270Z,101355.58
2018-06-17T17:55:12.135Z,101361.56
2018-06-17T17:57:41.607Z,101369.34
2018-06-17T18:00:11.784Z,101360.13
2018-06-17T18:02:41.432Z,101363.03
2018-06-17T18:05:10.969Z,101361.80
2018-06-17T18:07:40.701Z,101361.19
2018-06-17T18:10:10.456Z,101364.31
2018-06-17T18:12:39.966Z,101357.89
2018-06-17T18:15:09.981Z,101359.33
2018-06-17T18:17:39.630Z,101353.19
2018-06-17T18:20:09.162Z,101353.42
2018-06-17T18:22:38.813Z,101354.81
2018-06-17T18:25:14.066Z,101353.15
2018-06-17T18:27:48.781Z,101352.71
2018-06-17T18:30:23.245Z,101352.23
2018-06-17T18:32:57.717Z,101356.88
2018-06-17T18:35:32.481Z,101364.09
2018-06-17T18:38:02.674Z,101374.94
2018-06-17T18:40:32.451Z,101379.91
2018-06-17T18:43:02.459Z,101381.22
2018-06-17T18:45:32.382Z,101392.45
2018-06-17T18:48:01.955Z,101386.25
2018-06-17T18:50:32.129Z,101391.95
2018-06-17T18:53:02.846Z,101391.09
2018-06-17T18:55:32.650Z,101384.59
2018-06-17T18:58:03.450Z,101393.71
2018-06-17T19:00:32.995Z,101392.66
2018-06-17T19:03:03.395Z,101394.77
2018-06-17T19:05:33.129Z,101397.47
2018-06-17T19:08:02.736Z,101405.97
2018-06-17T19:10:37.569Z,101407.03
2018-06-17T19:13:12.220Z,101401.17
2018-06-17T19:16:47.738Z,101401.81
2018-06-17T19:19:17.165Z,101408.77
2018-06-17T19:21:46.873Z,101414.68
2018-06-17T19:24:16.285Z,101419.59
2018-06-17T19:26:45.741Z,101413.02
2018-06-17T19:29:15.232Z,101415.79
2018-06-17T19:31:45.249Z,101411.38
2018-06-17T19:34:14.858Z,101415.08
2018-06-17T19:36:44.345Z,101417.00
2018-06-17T19:39:13.675Z,101416.26
2018-06-17T19:41:43.408Z,101420.31
2018-06-17T19:44:19.356Z,101423.16
2018-06-17T19:46:48.651Z,101420.25
2018-06-17T19:49:18.113Z,101415.98
2018-06-17T19:51:53.136Z,101418.19
2018-06-17T19:54:27.812Z,101424.23
2018-06-17T19:57:02.414Z,101436.28
2018-06-17T19:59:37.233Z,101438.55
2018-06-17T20:02:07.035Z,101432.69
2018-06-17T20:04:36.618Z,101433.55
2018-06-17T20:07:06.509Z,101431.70
2018-06-17T20:09:36.266Z,101438.45
2018-06-17T20:12:06.205Z,101429.42
2018-06-17T20:14:36.086Z,101433.26
2018-06-17T20:17:06.326Z,101430.30
2018-06-17T20:19:36.244Z,101433.51
2018-06-17T20:22:06.397Z,101435.24
2018-06-17T20:24:36.101Z,101424.72
2018-06-17T20:27:06.726Z,101431.97
2018-06-17T20:29:36.244Z,101433.21
2018-06-17T20:32:11.111Z,101433.84
2018-06-17T20:34:46.136Z,101433.41
2018-06-17T20:37:20.591Z,101433.21
2018-06-17T20:39:56.956Z,101437.37
2018-06-17T20:42:31.814Z,101435.28
2018-06-17T20:45:01.937Z,101434.80
2018-06-17T20:47:32.248Z,101432.00
2018-06-17T20:50:02.105Z,101438.25
2018-06-17T20:52:31.962Z,101443.84
2018-06-17T20:55:02.604Z,101442.60
2018-06-17T20:57:32.522Z,101439.02
2018-06-17T21:00:02.213Z,101444.24
2018-06-17T21:02:32.230Z,101454.73
2018-06-17T21:05:02.251Z,101451.34
2018-06-17T21:07:31.859Z,101452.36
2018-06-17T21:10:01.836Z,101451.45
2018-06-17T21:12:31.309Z,101450.85
2018-06-17T21:15:04.917Z,101456.41
2018-06-17T21:17:34.551Z,101453.38
2018-06-17T21:20:09.524Z,101450.67
2018-06-17T21:22:44.037Z,101448.90
2018-06-17T21:25:18.871Z,101452.23
2018-06-17T21:27:50.999Z,101466.34
2018-06-17T21:30:20.903Z,101455.69
2018-06-17T21:32:50.194Z,101456.92
2018-06-17T21:35:19.586Z,101453.61
2018-06-17T21:37:49.371Z,101454.95
2018-06-17T21:40:18.800Z,101446.86
2018-06-17T21:42:48.264Z,101450.42
2018-06-17T21:45:17.973Z,101445.12
2018-06-17T21:47:47.277Z,101448.45
2018-06-17T21:50:16.666Z,101449.57
2018-06-17T21:52:46.240Z,101459.50
2018-06-17T21:55:15.553Z,101456.71
2018-06-17T21:57:44.983Z,101457.67
2018-06-17T22:00:14.457Z,101457.58
2018-06-17T22:02:44.727Z,101461.63
2018-06-17T22:05:14.358Z,101457.13
2018-06-17T22:07:49.233Z,101463.64
2018-06-17T22:10:23.875Z,101466.20
2018-06-17T22:13:00.987Z,101463.67
2018-06-17T22:15:35.848Z,101466.36
2018-06-17T22:18:06.354Z,101465.04
2018-06-17T22:20:35.945Z,101466.48
2018-06-17T22:23:05.354Z,101468.45
2018-06-17T22:25:35.521Z,101464.18
2018-06-17T22:28:05.077Z,101465.52
2018-06-17T22:30:34.840Z,101461.24
2018-06-17T22:33:04.877Z,101465.76
2018-06-17T22:35:34.386Z,101469.71
2018-06-17T22:38:04.164Z,101473.73
2018-06-17T22:40:34.245Z,101475.44
2018-06-17T22:43:05.285Z,101479.88
2018-06-17T22:45:34.945Z,101485.13
2018-06-17T22:48:05.497Z,101485.37
2018-06-17T22:50:35.336Z,101489.05
2018-06-17T22:53:16.160Z,101488.91
2018-06-17T22:55:45.427Z,101486.59
2018-06-17T22:58:20.265Z,101494.53
2018-06-17T23:00:54.701Z,101496.50
2018-06-17T23:03:29.462Z,101495.05
2018-06-17T23:06:04.062Z,101484.66
2018-06-17T23:08:38.832Z,101489.41
2018-06-17T23:11:09.010Z,101489.89
2018-06-17T23:13:38.993Z,101491.97
2018-06-17T23:16:08.400Z,101493.47
2018-06-17T23:18:38.649Z,101494.81
2018-06-17T23:21:08.403Z,101496.89
2018-06-17T23:23:37.906Z,101495.16
2018-06-17T23:26:07.357Z,101488.69
2018-06-17T23:28:37.400Z,101498.73
2018-06-17T23:31:07.101Z,101499.33
2018-06-17T23:33:37.234Z,101502.64
2018-06-17T23:36:06.849Z,101501.89
2018-06-17T23:38:37.172Z,101496.98
2018-06-17T23:41:07.344Z,101500.79
2018-06-17T23:43:37.253Z,101495.14
2018-06-17T23:46:12.288Z,101503.22
2018-06-17T23:49:45.757Z,101508.36
2018-06-17T23:52:20.383Z,101501.89
2018-06-17T23:54:55.180Z,101500.89
2018-06-17T23:57:24.713Z,101497.08
2018-06-17T23:59:53.908Z,101503.35
